createdAt,value
2023-10-18T00:00:26.304Z,13.80
2023-10-18T00:02:54.985Z,16.13
2023-10-18T00:05:22.875Z,15.95
2023-10-18T00:07:50.861Z,13.98
2023-10-18T00:10:21.519Z,12.65
2023-10-18T00:12:49.428Z,14.07
2023-10-18T00:15:16.730Z,14.88
2023-10-18T00:17:43.809Z,13.60
2023-10-18T00:20:17.505Z,13.55
2023-10-18T00:22:45.110Z,13.93
2023-10-18T00:25:13.137Z,14.25
2023-10-18T00:27:40.398Z,11.73
2023-10-18T00:30:13.666Z,12.80
2023-10-18T00:35:32.920Z,14.13
2023-10-18T00:38:00.224Z,13.43
2023-10-18T00:40:30.873Z,12.15
2023-10-18T00:43:21.479Z,13.40
2023-10-18T00:45:51.774Z,12.57
2023-10-18T00:48:21.209Z,14.07
2023-10-18T00:50:53.238Z,13.98
2023-10-18T00:53:24.993Z,12.32
2023-10-18T00:56:05.735Z,12.75
2023-10-18T00:58:40.244Z,10.98
2023-10-18T01:01:11.071Z,9.73
2023-10-18T01:03:50.262Z,19.67
2023-10-18T01:06:23.358Z,59.13
2023-10-18T01:08:51.175Z,30.80
2023-10-18T01:11:24.877Z,29.40
2023-10-18T01:13:51.795Z,34.75
2023-10-18T01:16:24.711Z,39.75
2023-10-18T01:18:54.844Z,32.00
2023-10-18T01:21:22.682Z,50.03
2023-10-18T01:23:55.199Z,44.97
2023-10-18T01:26:24.329Z,22.63
2023-10-18T01:28:53.462Z,19.40
2023-10-18T01:31:21.213Z,18.65
2023-10-18T01:33:49.274Z,16.52
2023-10-18T01:36:18.282Z,12.68
2023-10-18T01:38:49.488Z,16.17
2023-10-18T01:41:35.510Z,14.73
2023-10-18T01:44:11.730Z,16.02
2023-10-18T01:46:46.359Z,13.63
2023-10-18T01:49:22.303Z,12.75
2023-10-18T01:51:55.320Z,14.27
2023-10-18T01:54:26.247Z,17.13
2023-10-18T01:56:59.224Z,14.00
2023-10-18T01:59:29.469Z,13.75
2023-10-18T02:02:00.354Z,12.55
2023-10-18T02:04:44.532Z,11.52
2023-10-18T02:07:19.180Z,11.82
2023-10-18T02:09:59.333Z,15.10
2023-10-18T02:12:28.537Z,15.60
2023-10-18T02:14:56.885Z,11.30
2023-10-18T02:17:23.843Z,11.65
2023-10-18T02:19:51.157Z,11.25
2023-10-18T02:22:18.111Z,12.57
2023-10-18T02:24:45.300Z,14.30
2023-10-18T02:27:20.809Z,12.80
2023-10-18T02:29:48.184Z,13.18
2023-10-18T02:32:25.152Z,11.90
2023-10-18T02:34:52.865Z,13.05
2023-10-18T02:37:20.574Z,11.85
2023-10-18T02:39:54.713Z,14.13
2023-10-18T02:42:30.461Z,11.05
2023-10-18T02:44:57.618Z,11.15
2023-10-18T02:47:24.815Z,11.43
2023-10-18T02:49:54.665Z,12.55
2023-10-18T02:52:22.190Z,9.52
2023-10-18T02:54:52.728Z,10.13
2023-10-18T02:57:19.826Z,10.52
2023-10-18T02:59:46.667Z,12.43
2023-10-18T03:02:16.186Z,11.25
2023-10-18T03:04:48.638Z,11.27
2023-10-18T03:07:16.685Z,17.55
2023-10-18T03:09:49.502Z,27.73
2023-10-18T03:12:16.505Z,19.35
2023-10-18T03:14:55.611Z,16.73
2023-10-18T03:17:27.456Z,13.50
2023-10-18T03:19:58.232Z,12.45
2023-10-18T03:22:32.478Z,14.27
2023-10-18T03:25:00.992Z,14.13
2023-10-18T03:27:35.185Z,13.52
2023-10-18T03:30:22.779Z,13.45
2023-10-18T03:32:52.793Z,11.55
2023-10-18T03:35:22.836Z,13.02
2023-10-18T03:37:50.057Z,18.50
2023-10-18T03:40:27.972Z,14.68
2023-10-18T03:42:56.068Z,14.63
2023-10-18T03:45:24.549Z,15.35
2023-10-18T03:47:58.988Z,13.68
2023-10-18T03:50:33.469Z,13.23
2023-10-18T03:53:00.496Z,14.63
2023-10-18T03:55:38.131Z,12.10
2023-10-18T03:58:06.307Z,12.57
2023-10-18T04:00:39.062Z,14.23
2023-10-18T04:03:14.080Z,15.55
2023-10-18T04:05:43.865Z,11.73
2023-10-18T04:08:15.491Z,13.23
2023-10-18T04:10:43.413Z,14.35
2023-10-18T04:13:14.369Z,13.32
2023-10-18T04:15:47.689Z,10.07
2023-10-18T04:20:49.212Z,11.57
2023-10-18T04:23:16.473Z,9.88
2023-10-18T04:25:43.626Z,10.88
2023-10-18T04:28:13.312Z,10.65
2023-10-18T04:30:40.278Z,19.13
2023-10-18T04:33:16.825Z,12.73
2023-10-18T04:35:46.755Z,17.20
2023-10-18T04:38:31.892Z,12.45
2023-10-18T04:41:02.005Z,13.05
2023-10-18T04:43:29.231Z,15.50
2023-10-18T04:45:58.368Z,14.98
2023-10-18T04:48:45.221Z,10.32
2023-10-18T04:51:27.887Z,11.68
2023-10-18T04:53:58.820Z,12.93
2023-10-18T04:56:45.500Z,11.80
2023-10-18T04:59:18.733Z,12.95
2023-10-18T05:04:26.382Z,12.45
2023-10-18T05:06:57.098Z,11.88
2023-10-18T05:09:47.458Z,14.88
2023-10-18T05:12:22.011Z,12.25
2023-10-18T05:14:59.902Z,13.20
2023-10-18T05:17:31.503Z,10.68
2023-10-18T05:19:58.586Z,13.52
2023-10-18T05:22:26.373Z,17.20
2023-10-18T05:25:16.815Z,16.48
2023-10-18T05:28:07.370Z,18.80
2023-10-18T05:30:59.121Z,16.08
2023-10-18T05:33:41.445Z,16.83
2023-10-18T05:36:16.031Z,16.02
2023-10-18T05:38:46.087Z,19.00
2023-10-18T05:41:40.131Z,14.40
2023-10-18T05:44:07.864Z,14.40
2023-10-18T05:46:39.672Z,13.80
2023-10-18T05:49:16.640Z,14.63
2023-10-18T05:51:53.014Z,17.25
2023-10-18T05:54:30.908Z,17.55
2023-10-18T05:57:00.704Z,15.43
2023-10-18T05:59:34.230Z,15.48
2023-10-18T06:02:02.346Z,14.13
2023-10-18T06:04:35.005Z,16.58
2023-10-18T06:07:11.534Z,20.23
2023-10-18T06:09:46.619Z,16.27
2023-10-18T06:12:30.045Z,15.05
2023-10-18T06:14:58.699Z,15.30
2023-10-18T06:17:44.902Z,16.00
2023-10-18T06:20:31.075Z,15.82
2023-10-18T06:23:30.869Z,16.27
2023-10-18T06:26:09.583Z,13.52
2023-10-18T06:28:38.744Z,14.13
2023-10-18T06:31:05.680Z,13.60
2023-10-18T06:33:36.829Z,16.15
2023-10-18T06:36:13.110Z,13.98
2023-10-18T06:38:40.545Z,14.50
2023-10-18T06:41:19.882Z,14.45
2023-10-18T06:43:47.663Z,11.75
2023-10-18T06:46:28.408Z,16.25
2023-10-18T06:49:11.079Z,16.90
2023-10-18T06:51:41.895Z,18.10
2023-10-18T06:54:14.454Z,16.67
2023-10-18T06:56:46.732Z,15.35
2023-10-18T06:59:14.534Z,19.95
2023-10-18T07:01:55.857Z,16.25
2023-10-18T07:04:29.455Z,22.00
2023-10-18T07:06:56.994Z,22.38
2023-10-18T07:09:26.892Z,24.83
2023-10-18T07:11:58.249Z,19.83
2023-10-18T07:14:25.769Z,24.73
2023-10-18T07:16:56.333Z,24.17
2023-10-18T07:19:27.938Z,28.67
2023-10-18T07:21:56.086Z,30.38
2023-10-18T07:24:23.082Z,29.70
2023-10-18T07:26:49.972Z,26.70
2023-10-18T07:29:17.166Z,26.52
2023-10-18T07:31:47.638Z,27.52
2023-10-18T07:34:30.156Z,33.65
2023-10-18T07:36:57.523Z,35.47
2023-10-18T07:39:26.977Z,32.15
2023-10-18T07:41:54.535Z,28.88
2023-10-18T07:44:21.463Z,26.55
2023-10-18T07:46:48.291Z,23.42
2023-10-18T07:49:16.049Z,27.23
2023-10-18T07:51:44.866Z,26.40
2023-10-18T07:54:16.050Z,23.88
2023-10-18T07:56:50.349Z,24.45
2023-10-18T07:59:33.949Z,25.17
2023-10-18T08:02:11.156Z,24.48
2023-10-18T08:04:39.092Z,23.77
2023-10-18T08:07:11.434Z,22.58
2023-10-18T08:09:42.444Z,27.25
2023-10-18T08:12:29.080Z,22.88
2023-10-18T08:14:57.452Z,20.27
2023-10-18T08:17:30.770Z,25.08
2023-10-18T08:22:29.122Z,22.73
2023-10-18T08:24:56.027Z,21.92
2023-10-18T08:27:22.981Z,21.65
2023-10-18T08:29:53.991Z,20.77
2023-10-18T08:32:30.814Z,21.27
2023-10-18T08:35:07.620Z,26.90
2023-10-18T08:37:34.723Z,23.65
2023-10-18T08:40:01.692Z,21.52
2023-10-18T08:42:34.226Z,26.67
2023-10-18T08:45:05.416Z,26.77
2023-10-18T08:47:40.674Z,21.90
2023-10-18T08:50:11.677Z,20.70
2023-10-18T08:52:41.196Z,24.98
2023-10-18T08:55:21.303Z,21.67
2023-10-18T08:57:48.995Z,23.83
2023-10-18T09:00:37.446Z,24.13
2023-10-18T09:03:04.861Z,21.50
2023-10-18T09:05:32.644Z,19.55
2023-10-18T09:08:06.627Z,20.67
2023-10-18T09:10:39.361Z,21.30
2023-10-18T09:13:18.200Z,21.77
2023-10-18T09:16:11.338Z,21.65
2023-10-18T09:18:38.654Z,19.67
2023-10-18T09:21:10.215Z,21.65
2023-10-18T09:23:38.645Z,23.70
2023-10-18T09:26:15.507Z,18.40
2023-10-18T09:28:43.356Z,19.67
2023-10-18T09:31:13.774Z,18.23
2023-10-18T09:33:52.585Z,18.77
2023-10-18T09:36:21.310Z,17.08
2023-10-18T09:38:49.804Z,17.50
2023-10-18T09:41:17.974Z,16.25
2023-10-18T09:43:45.892Z,16.13
2023-10-18T09:46:14.546Z,17.30
2023-10-18T09:48:47.064Z,15.73
2023-10-18T09:51:24.982Z,15.45
2023-10-18T09:53:56.095Z,16.98
2023-10-18T09:56:36.573Z,14.85
2023-10-18T09:59:09.177Z,15.68
2023-10-18T10:01:43.162Z,13.43
2023-10-18T10:04:13.024Z,16.27
2023-10-18T10:06:48.532Z,16.63
2023-10-18T10:11:44.946Z,14.48
2023-10-18T10:14:13.032Z,16.17
2023-10-18T10:16:51.481Z,15.77
2023-10-18T10:19:20.257Z,13.82
2023-10-18T10:21:47.886Z,14.45
2023-10-18T10:24:40.770Z,13.65
2023-10-18T10:27:33.876Z,14.13
2023-10-18T10:30:22.739Z,15.27
2023-10-18T10:32:50.918Z,18.30
2023-10-18T10:35:19.727Z,15.77
2023-10-18T10:37:53.944Z,15.77
2023-10-18T10:40:31.641Z,13.35
2023-10-18T10:43:03.791Z,16.35
2023-10-18T10:45:36.668Z,15.65
2023-10-18T10:48:27.825Z,19.42
2023-10-18T10:51:13.368Z,14.68
2023-10-18T10:53:59.803Z,15.70
2023-10-18T10:56:29.377Z,15.75
2023-10-18T10:59:19.270Z,13.20
2023-10-18T11:01:55.278Z,16.63
2023-10-18T11:04:56.342Z,15.23
2023-10-18T11:07:23.909Z,14.13
2023-10-18T11:09:53.141Z,14.85
2023-10-18T11:12:21.846Z,16.58
2023-10-18T11:14:51.488Z,13.10
2023-10-18T11:17:18.739Z,13.85
2023-10-18T11:19:52.468Z,14.73
2023-10-18T11:24:56.683Z,12.90
2023-10-18T11:27:35.186Z,13.73
2023-10-18T11:30:17.033Z,12.45
2023-10-18T11:32:45.999Z,13.38
2023-10-18T11:35:19.551Z,13.10
2023-10-18T11:37:48.738Z,14.57
2023-10-18T11:40:17.271Z,16.20
2023-10-18T11:42:57.185Z,12.35
2023-10-18T11:45:29.184Z,12.30
2023-10-18T11:47:56.377Z,12.77
2023-10-18T11:50:25.097Z,12.80
2023-10-18T11:52:53.517Z,13.35
2023-10-18T11:55:24.117Z,13.45
2023-10-18T11:57:51.442Z,13.30
2023-10-18T12:00:24.340Z,11.43
2023-10-18T12:02:52.823Z,12.60
2023-10-18T12:05:25.052Z,11.85
2023-10-18T12:07:55.082Z,13.20
2023-10-18T12:10:31.748Z,12.23
2023-10-18T12:12:59.326Z,13.63
2023-10-18T12:15:31.556Z,13.07
2023-10-18T12:18:02.926Z,11.43
2023-10-18T12:20:36.419Z,11.27
2023-10-18T12:25:30.807Z,14.00
2023-10-18T12:27:57.950Z,11.82
2023-10-18T12:30:36.766Z,10.70
2023-10-18T12:33:07.224Z,13.48
2023-10-18T12:35:35.424Z,16.48
2023-10-18T12:38:13.903Z,10.95
2023-10-18T12:40:45.345Z,12.63
2023-10-18T12:43:18.895Z,12.57
2023-10-18T12:45:48.819Z,14.10
2023-10-18T12:48:16.068Z,15.52
2023-10-18T12:50:46.989Z,16.00
2023-10-18T12:53:19.726Z,16.90
2023-10-18T12:55:47.137Z,15.77
2023-10-18T12:58:19.882Z,14.82
2023-10-18T13:00:47.335Z,14.40
2023-10-18T13:03:14.298Z,13.93
2023-10-18T13:05:41.916Z,13.10
2023-10-18T13:08:18.063Z,15.13
2023-10-18T13:10:49.958Z,15.02
2023-10-18T13:13:20.010Z,17.52
2023-10-18T13:15:49.839Z,13.52
2023-10-18T13:18:17.559Z,13.70
2023-10-18T13:20:50.156Z,14.68
2023-10-18T13:23:20.247Z,18.55
2023-10-18T13:25:53.422Z,16.40
2023-10-18T13:28:34.131Z,20.85
2023-10-18T13:31:05.739Z,15.68
2023-10-18T13:33:35.140Z,15.73
2023-10-18T13:36:02.918Z,16.25
2023-10-18T13:38:30.994Z,17.80
2023-10-18T13:41:00.963Z,18.35
2023-10-18T13:43:27.817Z,17.83
2023-10-18T13:46:01.523Z,13.57
2023-10-18T13:48:28.663Z,17.45
2023-10-18T13:50:59.661Z,16.15
2023-10-18T13:53:29.847Z,14.18
2023-10-18T13:56:00.699Z,14.38
2023-10-18T13:58:31.742Z,16.33
2023-10-18T14:00:59.458Z,16.48
2023-10-18T14:03:28.600Z,16.85
2023-10-18T14:05:56.141Z,17.55
2023-10-18T14:08:23.656Z,15.10
2023-10-18T14:10:56.075Z,14.95
2023-10-18T14:13:29.265Z,18.52
2023-10-18T14:15:56.319Z,17.25
2023-10-18T14:18:26.548Z,17.52
2023-10-18T14:21:05.717Z,18.13
2023-10-18T14:23:35.694Z,17.20
2023-10-18T14:26:02.582Z,17.58
2023-10-18T14:28:33.105Z,16.85
2023-10-18T14:31:01.211Z,17.95
2023-10-18T14:33:34.788Z,17.45
2023-10-18T14:36:14.952Z,16.27
2023-10-18T14:38:43.246Z,14.75
2023-10-18T14:41:28.725Z,19.80
2023-10-18T14:43:59.556Z,15.35
2023-10-18T14:46:29.228Z,14.68
2023-10-18T14:48:58.157Z,17.20
2023-10-18T14:51:26.332Z,19.02
2023-10-18T14:54:00.785Z,19.75
2023-10-18T14:56:33.518Z,18.95
2023-10-18T14:59:02.458Z,16.95
2023-10-18T15:01:29.819Z,17.42
2023-10-18T15:03:57.699Z,17.60
2023-10-18T15:06:25.869Z,18.38
2023-10-18T15:08:56.390Z,15.65
2023-10-18T15:11:24.379Z,20.92
2023-10-18T15:13:51.775Z,17.85
2023-10-18T15:16:20.151Z,17.38
2023-10-18T15:18:50.359Z,17.83
2023-10-18T15:21:18.802Z,18.40
2023-10-18T15:23:46.386Z,16.05
2023-10-18T15:26:26.984Z,16.90
2023-10-18T15:28:58.001Z,17.02
2023-10-18T15:31:28.516Z,16.73
2023-10-18T15:33:56.195Z,17.20
2023-10-18T15:36:26.386Z,16.83
2023-10-18T15:38:55.613Z,17.33
2023-10-18T15:41:27.702Z,19.90
2023-10-18T15:43:59.508Z,19.40
2023-10-18T15:46:29.962Z,18.75
2023-10-18T15:49:01.406Z,20.63
2023-10-18T15:51:33.410Z,18.67
2023-10-18T15:54:03.389Z,22.02
2023-10-18T15:56:36.429Z,21.92
2023-10-18T15:59:06.620Z,18.30
2023-10-18T16:01:50.982Z,18.73
2023-10-18T16:04:24.909Z,21.67
2023-10-18T16:06:55.825Z,22.42
2023-10-18T16:09:31.209Z,23.02
2023-10-18T16:12:08.847Z,23.80
2023-10-18T16:14:40.362Z,22.70
2023-10-18T16:17:07.701Z,27.75
2023-10-18T16:19:36.936Z,23.77
2023-10-18T16:22:04.544Z,21.60
2023-10-18T16:24:35.611Z,20.50
2023-10-18T16:27:05.686Z,23.88
2023-10-18T16:29:34.546Z,22.25
2023-10-18T16:32:01.852Z,22.33
2023-10-18T16:34:30.091Z,25.10
2023-10-18T16:36:57.850Z,26.63
2023-10-18T16:39:24.966Z,22.48
2023-10-18T16:41:52.752Z,25.10
2023-10-18T16:44:19.984Z,27.83
2023-10-18T16:46:47.228Z,28.98
2023-10-18T16:49:15.172Z,26.50
2023-10-18T16:51:42.301Z,27.10
2023-10-18T16:54:09.402Z,25.33
2023-10-18T16:56:36.507Z,27.70
2023-10-18T16:59:06.685Z,26.27
2023-10-18T17:01:34.210Z,29.02
2023-10-18T17:04:01.141Z,24.98
2023-10-18T17:06:30.178Z,28.33
2023-10-18T17:08:58.535Z,25.95
2023-10-18T17:11:27.924Z,26.90
2023-10-18T17:13:54.925Z,24.67
2023-10-18T17:16:22.894Z,28.10
2023-10-18T17:18:52.775Z,26.55
2023-10-18T17:21:20.821Z,27.83
2023-10-18T17:23:48.701Z,25.42
2023-10-18T17:26:19.369Z,25.27
2023-10-18T17:28:47.881Z,27.70
2023-10-18T17:31:20.108Z,28.02
2023-10-18T17:33:48.114Z,28.67
2023-10-18T17:36:19.673Z,29.20
2023-10-18T17:38:47.965Z,25.15
2023-10-18T17:41:15.772Z,28.92
2023-10-18T17:43:43.246Z,27.40
2023-10-18T17:46:15.161Z,30.40
2023-10-18T17:48:42.497Z,34.85
2023-10-18T17:51:09.851Z,32.38
2023-10-18T17:53:39.991Z,28.38
2023-10-18T17:56:13.023Z,29.98
2023-10-18T17:58:40.829Z,29.73
2023-10-18T18:01:16.200Z,32.58
2023-10-18T18:03:44.281Z,32.22
2023-10-18T18:06:12.381Z,29.13
2023-10-18T18:08:39.362Z,31.65
2023-10-18T18:11:06.402Z,40.80
2023-10-18T18:13:37.929Z,40.45
2023-10-18T18:16:06.723Z,44.03
2023-10-18T18:18:33.834Z,63.50
2023-10-18T18:21:00.612Z,69.13
2023-10-18T18:23:27.433Z,41.97
2023-10-18T18:25:57.007Z,30.77
2023-10-18T18:28:25.017Z,35.75
2023-10-18T18:30:54.256Z,28.98
2023-10-18T18:33:21.320Z,26.40
2023-10-18T18:35:48.196Z,30.17
2023-10-18T18:38:16.046Z,29.75
2023-10-18T18:40:43.059Z,30.67
2023-10-18T18:43:09.978Z,29.65
2023-10-18T18:45:37.336Z,29.88
2023-10-18T18:48:04.817Z,30.30
2023-10-18T18:50:31.690Z,28.33
2023-10-18T18:52:58.628Z,29.40
2023-10-18T18:55:27.489Z,29.38
2023-10-18T18:57:56.286Z,31.00
2023-10-18T19:00:23.756Z,33.92
2023-10-18T19:02:57.044Z,40.67
2023-10-18T19:07:53.517Z,39.30
2023-10-18T19:10:21.479Z,39.25
2023-10-18T19:12:49.962Z,38.97
2023-10-18T19:15:24.834Z,30.15
2023-10-18T19:17:52.170Z,31.88
2023-10-18T19:20:20.340Z,32.80
2023-10-18T19:22:49.061Z,34.13
2023-10-18T19:25:23.633Z,35.15
2023-10-18T19:27:50.507Z,38.53
2023-10-18T19:30:18.516Z,47.33
2023-10-18T19:32:45.613Z,35.72
2023-10-18T19:35:13.401Z,34.55
2023-10-18T19:37:41.068Z,32.17
2023-10-18T19:40:12.233Z,33.78
2023-10-18T19:42:40.454Z,31.90
2023-10-18T19:45:09.470Z,34.45
2023-10-18T19:47:36.482Z,30.55
2023-10-18T19:50:04.385Z,30.10
2023-10-18T19:52:31.901Z,30.75
2023-10-18T19:54:59.668Z,28.50
2023-10-18T19:57:26.524Z,32.97
2023-10-18T19:59:53.947Z,42.20
2023-10-18T20:02:21.315Z,38.42
2023-10-18T20:04:48.320Z,32.78
2023-10-18T20:07:16.814Z,34.78
2023-10-18T20:09:44.636Z,34.30
2023-10-18T20:12:12.110Z,29.17
2023-10-18T20:14:39.282Z,33.35
2023-10-18T20:17:06.845Z,35.70
2023-10-18T20:19:34.087Z,33.30
2023-10-18T20:22:01.082Z,36.95
2023-10-18T20:24:27.950Z,37.22
2023-10-18T20:26:54.983Z,40.33
2023-10-18T20:29:22.007Z,47.20
2023-10-18T20:31:49.249Z,36.15
2023-10-18T20:34:16.317Z,32.28
2023-10-18T20:36:43.155Z,32.63
2023-10-18T20:39:10.934Z,37.30
2023-10-18T20:41:39.699Z,34.53
2023-10-18T20:44:27.965Z,40.92
2023-10-18T20:46:57.040Z,37.35
2023-10-18T20:49:27.756Z,34.38
2023-10-18T20:51:58.017Z,34.15
2023-10-18T20:54:26.430Z,36.00
2023-10-18T20:57:10.915Z,32.92
2023-10-18T20:59:39.512Z,34.13
2023-10-18T21:02:13.328Z,39.55
2023-10-18T21:04:40.334Z,39.40
2023-10-18T21:07:09.980Z,35.15
2023-10-18T21:09:36.844Z,36.97
2023-10-18T21:12:07.344Z,37.38
2023-10-18T21:14:34.302Z,38.00
2023-10-18T21:17:01.163Z,39.03
2023-10-18T21:19:28.122Z,35.72
2023-10-18T21:21:54.984Z,36.65
2023-10-18T21:24:21.818Z,36.75
2023-10-18T21:26:49.233Z,37.08
2023-10-18T21:29:16.983Z,35.47
2023-10-18T21:31:44.436Z,37.13
2023-10-18T21:34:11.424Z,32.33
2023-10-18T21:36:38.250Z,31.85
2023-10-18T21:39:07.405Z,39.78
2023-10-18T21:41:35.880Z,35.95
2023-10-18T21:44:02.751Z,37.40
2023-10-18T21:46:29.771Z,36.25
2023-10-18T21:48:57.526Z,35.83
2023-10-18T21:51:25.067Z,34.88
2023-10-18T21:53:53.105Z,35.65
2023-10-18T21:56:19.992Z,35.35
2023-10-18T21:58:47.586Z,32.60
2023-10-18T22:01:44.435Z,39.67
2023-10-18T22:04:11.464Z,31.50
2023-10-18T22:06:40.104Z,36.65
2023-10-18T22:09:32.158Z,41.90
2023-10-18T22:14:27.239Z,36.38
2023-10-18T22:16:55.135Z,37.55
2023-10-18T22:19:31.730Z,41.72
2023-10-18T22:21:59.616Z,38.35
2023-10-18T22:24:36.939Z,37.15
2023-10-18T22:27:07.325Z,33.72
2023-10-18T22:29:37.323Z,34.13
2023-10-18T22:34:35.592Z,33.78
2023-10-18T22:37:07.408Z,34.97
2023-10-18T22:39:35.216Z,37.20
2023-10-18T22:42:09.596Z,34.03
2023-10-18T22:44:39.524Z,33.65
2023-10-18T22:47:07.965Z,39.33
2023-10-18T22:49:37.690Z,39.60
2023-10-18T22:52:24.088Z,37.55
2023-10-18T22:54:52.237Z,32.78
2023-10-18T22:57:19.479Z,33.75
2023-10-18T22:59:48.006Z,37.55
2023-10-18T23:02:23.493Z,32.60
2023-10-18T23:04:55.832Z,34.85
2023-10-18T23:07:28.537Z,34.95
2023-10-18T23:09:58.664Z,33.53
2023-10-18T23:12:29.067Z,38.08
2023-10-18T23:15:19.693Z,36.45
2023-10-18T23:17:53.549Z,33.58
2023-10-18T23:20:35.164Z,35.33
2023-10-18T23:23:07.153Z,33.25
2023-10-18T23:25:52.462Z,32.83
2023-10-18T23:28:31.457Z,41.47
2023-10-18T23:31:18.536Z,36.35
2023-10-18T23:33:50.283Z,32.92
2023-10-18T23:36:25.781Z,32.80
2023-10-18T23:39:04.032Z,35.92
2023-10-18T23:41:33.810Z,39.20
2023-10-18T23:44:11.451Z,35.05
2023-10-18T23:46:58.188Z,34.30
2023-10-18T23:49:27.993Z,35.65
2023-10-18T23:52:15.578Z,32.72
2023-10-18T23:54:44.167Z,35.38
2023-10-18T23:57:15.583Z,35.03
2023-10-18T23:59:45.602Z,35.63
